sensor_id;sensor_type;location;lat;lon;timestamp;P1;durP1;ratioP1;P2;durP2;ratioP2
47337;SDS011;33069;51.970;5.892;2023-09-12T00:00:15;91.28;;;58.40;;
47337;SDS011;33069;51.970;5.892;2023-09-12T00:03:01;107.80;;;63.17;;
47337;SDS011;33069;51.970;5.892;2023-09-12T00:05:54;122.80;;;67.47;;
47337;SDS011;33069;51.970;5.892;2023-09-12T00:08:41;116.90;;;67.45;;
47337;SDS011;33069;51.970;5.892;2023-09-12T00:11:28;147.70;;;73.35;;
47337;SDS011;33069;51.970;5.892;2023-09-12T00:14:17;119.10;;;67.30;;
47337;SDS011;33069;51.970;5.892;2023-09-12T00:17:03;127.72;;;69.13;;
47337;SDS011;33069;51.970;5.892;2023-09-12T00:19:49;123.97;;;67.63;;
47337;SDS011;33069;51.970;5.892;2023-09-12T00:22:35;118.63;;;69.45;;
47337;SDS011;33069;51.970;5.892;2023-09-12T00:25:21;107.95;;;66.20;;
47337;SDS011;33069;51.970;5.892;2023-09-12T00:28:07;130.02;;;68.20;;
47337;SDS011;33069;51.970;5.892;2023-09-12T00:30:53;115.30;;;63.88;;
47337;SDS011;33069;51.970;5.892;2023-09-12T00:33:39;134.88;;;68.20;;
47337;SDS011;33069;51.970;5.892;2023-09-12T00:36:25;128.13;;;68.05;;
47337;SDS011;33069;51.970;5.892;2023-09-12T00:39:11;115.45;;;65.57;;
47337;SDS011;33069;51.970;5.892;2023-09-12T00:41:57;99.22;;;60.95;;
47337;SDS011;33069;51.970;5.892;2023-09-12T00:44:43;110.00;;;63.25;;
47337;SDS011;33069;51.970;5.892;2023-09-12T00:47:29;117.25;;;64.53;;
47337;SDS011;33069;51.970;5.892;2023-09-12T00:50:16;148.02;;;72.38;;
47337;SDS011;33069;51.970;5.892;2023-09-12T00:53:05;101.15;;;60.80;;
47337;SDS011;33069;51.970;5.892;2023-09-12T00:55:55;124.30;;;65.88;;
47337;SDS011;33069;51.970;5.892;2023-09-12T00:58:43;100.45;;;59.42;;
47337;SDS011;33069;51.970;5.892;2023-09-12T01:01:31;100.75;;;58.70;;
47337;SDS011;33069;51.970;5.892;2023-09-12T01:04:18;109.10;;;59.45;;
47337;SDS011;33069;51.970;5.892;2023-09-12T01:07:05;116.50;;;65.55;;
47337;SDS011;33069;51.970;5.892;2023-09-12T01:09:51;143.70;;;72.63;;
47337;SDS011;33069;51.970;5.892;2023-09-12T01:12:37;133.20;;;69.25;;
47337;SDS011;33069;51.970;5.892;2023-09-12T01:15:23;153.95;;;73.97;;
47337;SDS011;33069;51.970;5.892;2023-09-12T01:18:09;129.63;;;68.57;;
47337;SDS011;33069;51.970;5.892;2023-09-12T01:21:32;112.13;;;63.75;;
47337;SDS011;33069;51.970;5.892;2023-09-12T01:28:01;120.30;;;67.63;;
47337;SDS011;33069;51.970;5.892;2023-09-12T01:30:51;150.07;;;71.03;;
47337;SDS011;33069;51.970;5.892;2023-09-12T01:33:39;124.15;;;65.95;;
47337;SDS011;33069;51.970;5.892;2023-09-12T01:36:25;131.60;;;69.53;;
47337;SDS011;33069;51.970;5.892;2023-09-12T01:39:11;123.80;;;65.70;;
47337;SDS011;33069;51.970;5.892;2023-09-12T01:41:57;114.22;;;63.70;;
47337;SDS011;33069;51.970;5.892;2023-09-12T01:44:45;150.85;;;70.75;;
47337;SDS011;33069;51.970;5.892;2023-09-12T01:47:32;165.73;;;73.32;;
47337;SDS011;33069;51.970;5.892;2023-09-12T01:50:19;110.88;;;59.72;;
47337;SDS011;33069;51.970;5.892;2023-09-12T01:53:06;147.93;;;70.40;;
47337;SDS011;33069;51.970;5.892;2023-09-12T01:55:52;110.75;;;62.45;;
47337;SDS011;33069;51.970;5.892;2023-09-12T01:58:39;114.38;;;63.28;;
47337;SDS011;33069;51.970;5.892;2023-09-12T02:01:25;174.23;;;74.82;;
47337;SDS011;33069;51.970;5.892;2023-09-12T02:04:12;184.32;;;75.80;;
47337;SDS011;33069;51.970;5.892;2023-09-12T02:06:58;124.65;;;65.47;;
47337;SDS011;33069;51.970;5.892;2023-09-12T02:09:44;104.68;;;59.28;;
47337;SDS011;33069;51.970;5.892;2023-09-12T02:12:33;125.28;;;63.75;;
47337;SDS011;33069;51.970;5.892;2023-09-12T02:15:19;128.05;;;62.53;;
47337;SDS011;33069;51.970;5.892;2023-09-12T02:18:05;134.88;;;68.53;;
47337;SDS011;33069;51.970;5.892;2023-09-12T02:20:51;153.50;;;67.70;;
47337;SDS011;33069;51.970;5.892;2023-09-12T02:23:37;113.15;;;63.55;;
47337;SDS011;33069;51.970;5.892;2023-09-12T02:26:23;147.48;;;64.07;;
47337;SDS011;33069;51.970;5.892;2023-09-12T02:29:09;138.80;;;66.05;;
47337;SDS011;33069;51.970;5.892;2023-09-12T02:31:55;110.57;;;63.38;;
47337;SDS011;33069;51.970;5.892;2023-09-12T02:34:41;148.45;;;67.30;;
47337;SDS011;33069;51.970;5.892;2023-09-12T02:37:27;129.05;;;65.88;;
47337;SDS011;33069;51.970;5.892;2023-09-12T02:40:13;117.65;;;59.78;;
47337;SDS011;33069;51.970;5.892;2023-09-12T02:43:00;137.52;;;66.75;;
47337;SDS011;33069;51.970;5.892;2023-09-12T02:45:46;138.88;;;64.20;;
47337;SDS011;33069;51.970;5.892;2023-09-12T02:48:32;173.98;;;69.93;;
47337;SDS011;33069;51.970;5.892;2023-09-12T02:51:17;146.10;;;62.78;;
47337;SDS011;33069;51.970;5.892;2023-09-12T02:54:03;113.10;;;62.20;;
47337;SDS011;33069;51.970;5.892;2023-09-12T02:56:49;129.55;;;61.40;;
47337;SDS011;33069;51.970;5.892;2023-09-12T02:59:36;108.40;;;59.97;;
47337;SDS011;33069;51.970;5.892;2023-09-12T03:02:22;120.15;;;60.35;;
47337;SDS011;33069;51.970;5.892;2023-09-12T03:05:08;132.77;;;62.45;;
47337;SDS011;33069;51.970;5.892;2023-09-12T03:07:54;105.43;;;54.38;;
47337;SDS011;33069;51.970;5.892;2023-09-12T03:10:40;124.82;;;65.22;;
47337;SDS011;33069;51.970;5.892;2023-09-12T03:13:26;125.47;;;62.00;;
47337;SDS011;33069;51.970;5.892;2023-09-12T03:16:13;123.45;;;61.42;;
47337;SDS011;33069;51.970;5.892;2023-09-12T03:19:00;147.48;;;66.93;;
47337;SDS011;33069;51.970;5.892;2023-09-12T03:21:47;178.88;;;68.78;;
47337;SDS011;33069;51.970;5.892;2023-09-12T03:24:33;119.55;;;60.65;;
47337;SDS011;33069;51.970;5.892;2023-09-12T03:27:19;153.88;;;67.88;;
47337;SDS011;33069;51.970;5.892;2023-09-12T03:30:05;130.13;;;65.50;;
47337;SDS011;33069;51.970;5.892;2023-09-12T03:32:52;193.15;;;76.10;;
47337;SDS011;33069;51.970;5.892;2023-09-12T03:35:38;162.82;;;69.93;;
47337;SDS011;33069;51.970;5.892;2023-09-12T03:38:24;132.68;;;63.10;;
47337;SDS011;33069;51.970;5.892;2023-09-12T03:41:10;115.93;;;61.05;;
47337;SDS011;33069;51.970;5.892;2023-09-12T03:43:55;207.48;;;77.55;;
47337;SDS011;33069;51.970;5.892;2023-09-12T03:46:42;127.20;;;66.60;;
47337;SDS011;33069;51.970;5.892;2023-09-12T03:49:28;199.63;;;77.65;;
47337;SDS011;33069;51.970;5.892;2023-09-12T03:52:14;113.05;;;57.13;;
47337;SDS011;33069;51.970;5.892;2023-09-12T03:55:00;161.57;;;70.95;;
47337;SDS011;33069;51.970;5.892;2023-09-12T03:57:46;139.63;;;68.68;;
47337;SDS011;33069;51.970;5.892;2023-09-12T04:00:32;129.65;;;64.93;;
47337;SDS011;33069;51.970;5.892;2023-09-12T04:03:18;150.55;;;69.03;;
47337;SDS011;33069;51.970;5.892;2023-09-12T04:06:06;378.88;;;94.97;;
47337;SDS011;33069;51.970;5.892;2023-09-12T04:08:51;429.15;;;99.55;;
47337;SDS011;33069;51.970;5.892;2023-09-12T04:11:37;846.13;;;100.40;;
47337;SDS011;33069;51.970;5.892;2023-09-12T04:14:23;835.45;;;100.38;;
47337;SDS011;33069;51.970;5.892;2023-09-12T04:17:09;254.55;;;72.57;;
47337;SDS011;33069;51.970;5.892;2023-09-12T04:19:55;599.15;;;102.68;;
47337;SDS011;33069;51.970;5.892;2023-09-12T04:22:41;920.40;;;127.10;;
47337;SDS011;33069;51.970;5.892;2023-09-12T04:25:28;603.42;;;108.60;;
47337;SDS011;33069;51.970;5.892;2023-09-12T04:28:14;119.95;;;68.93;;
47337;SDS011;33069;51.970;5.892;2023-09-12T04:31:01;234.52;;;83.68;;
47337;SDS011;33069;51.970;5.892;2023-09-12T04:33:53;194.27;;;82.47;;
47337;SDS011;33069;51.970;5.892;2023-09-12T04:36:39;310.83;;;90.35;;
47337;SDS011;33069;51.970;5.892;2023-09-12T04:39:25;166.02;;;73.97;;
47337;SDS011;33069;51.970;5.892;2023-09-12T04:42:11;798.92;;;123.00;;
47337;SDS011;33069;51.970;5.892;2023-09-12T04:44:57;1438.22;;;163.65;;
47337;SDS011;33069;51.970;5.892;2023-09-12T04:47:43;971.03;;;126.22;;
47337;SDS011;33069;51.970;5.892;2023-09-12T04:50:29;277.60;;;81.28;;
47337;SDS011;33069;51.970;5.892;2023-09-12T04:53:15;298.48;;;93.00;;
47337;SDS011;33069;51.970;5.892;2023-09-12T04:56:02;253.38;;;90.00;;
47337;SDS011;33069;51.970;5.892;2023-09-12T04:58:48;379.70;;;94.93;;
47337;SDS011;33069;51.970;5.892;2023-09-12T05:01:34;274.27;;;83.40;;
47337;SDS011;33069;51.970;5.892;2023-09-12T05:04:20;137.98;;;70.15;;
47337;SDS011;33069;51.970;5.892;2023-09-12T05:07:06;576.28;;;107.90;;
47337;SDS011;33069;51.970;5.892;2023-09-12T05:09:52;1006.95;;;129.00;;
47337;SDS011;33069;51.970;5.892;2023-09-12T05:12:38;661.03;;;120.00;;
47337;SDS011;33069;51.970;5.892;2023-09-12T05:15:24;308.67;;;91.35;;
47337;SDS011;33069;51.970;5.892;2023-09-12T05:18:10;232.93;;;86.22;;
47337;SDS011;33069;51.970;5.892;2023-09-12T05:20:56;204.40;;;86.07;;
47337;SDS011;33069;51.970;5.892;2023-09-12T05:23:42;265.83;;;93.47;;
47337;SDS011;33069;51.970;5.892;2023-09-12T05:26:28;398.50;;;101.55;;
47337;SDS011;33069;51.970;5.892;2023-09-12T05:29:14;295.00;;;91.07;;
47337;SDS011;33069;51.970;5.892;2023-09-12T05:32:00;385.88;;;109.22;;
47337;SDS011;33069;51.970;5.892;2023-09-12T05:34:47;673.35;;;115.05;;
47337;SDS011;33069;51.970;5.892;2023-09-12T05:37:35;191.02;;;79.18;;
47337;SDS011;33069;51.970;5.892;2023-09-12T05:40:21;249.00;;;89.38;;
47337;SDS011;33069;51.970;5.892;2023-09-12T05:43:07;299.00;;;92.75;;
47337;SDS011;33069;51.970;5.892;2023-09-12T05:45:53;206.20;;;87.53;;
47337;SDS011;33069;51.970;5.892;2023-09-12T05:48:39;203.05;;;87.90;;
47337;SDS011;33069;51.970;5.892;2023-09-12T05:51:25;457.50;;;112.55;;
47337;SDS011;33069;51.970;5.892;2023-09-12T05:54:11;503.67;;;110.15;;
47337;SDS011;33069;51.970;5.892;2023-09-12T05:56:58;392.45;;;98.13;;
47337;SDS011;33069;51.970;5.892;2023-09-12T05:59:44;225.55;;;81.45;;
47337;SDS011;33069;51.970;5.892;2023-09-12T06:02:30;192.60;;;84.18;;
47337;SDS011;33069;51.970;5.892;2023-09-12T06:05:18;432.90;;;106.63;;
47337;SDS011;33069;51.970;5.892;2023-09-12T06:08:05;204.18;;;89.20;;
47337;SDS011;33069;51.970;5.892;2023-09-12T06:10:51;221.70;;;83.70;;
47337;SDS011;33069;51.970;5.892;2023-09-12T06:13:39;201.10;;;87.97;;
47337;SDS011;33069;51.970;5.892;2023-09-12T06:16:25;261.10;;;93.25;;
47337;SDS011;33069;51.970;5.892;2023-09-12T06:19:12;252.77;;;88.63;;
47337;SDS011;33069;51.970;5.892;2023-09-12T06:21:59;271.63;;;96.65;;
47337;SDS011;33069;51.970;5.892;2023-09-12T06:24:45;214.13;;;85.75;;
47337;SDS011;33069;51.970;5.892;2023-09-12T06:27:31;295.65;;;96.50;;
47337;SDS011;33069;51.970;5.892;2023-09-12T06:30:17;234.30;;;103.90;;
47337;SDS011;33069;51.970;5.892;2023-09-12T06:33:03;211.63;;;94.03;;
47337;SDS011;33069;51.970;5.892;2023-09-12T06:35:49;290.00;;;105.90;;
47337;SDS011;33069;51.970;5.892;2023-09-12T06:38:38;222.55;;;96.20;;
47337;SDS011;33069;51.970;5.892;2023-09-12T06:41:24;218.05;;;96.90;;
47337;SDS011;33069;51.970;5.892;2023-09-12T06:44:10;363.30;;;106.28;;
47337;SDS011;33069;51.970;5.892;2023-09-12T06:46:56;269.92;;;101.72;;
47337;SDS011;33069;51.970;5.892;2023-09-12T06:49:42;272.17;;;97.65;;
47337;SDS011;33069;51.970;5.892;2023-09-12T06:52:28;265.30;;;100.00;;
47337;SDS011;33069;51.970;5.892;2023-09-12T06:55:14;190.25;;;91.45;;
47337;SDS011;33069;51.970;5.892;2023-09-12T06:58:00;184.60;;;86.15;;
47337;SDS011;33069;51.970;5.892;2023-09-12T07:00:46;182.52;;;78.78;;
47337;SDS011;33069;51.970;5.892;2023-09-12T07:03:32;164.73;;;78.65;;
47337;SDS011;33069;51.970;5.892;2023-09-12T07:06:19;182.18;;;78.53;;
47337;SDS011;33069;51.970;5.892;2023-09-12T07:09:06;218.75;;;86.50;;
47337;SDS011;33069;51.970;5.892;2023-09-12T07:11:53;175.30;;;79.10;;
47337;SDS011;33069;51.970;5.892;2023-09-12T07:14:39;138.27;;;72.20;;
47337;SDS011;33069;51.970;5.892;2023-09-12T07:17:27;154.13;;;75.80;;
47337;SDS011;33069;51.970;5.892;2023-09-12T07:20:13;141.55;;;73.22;;
47337;SDS011;33069;51.970;5.892;2023-09-12T07:23:01;161.07;;;75.20;;
47337;SDS011;33069;51.970;5.892;2023-09-12T07:25:47;139.88;;;70.47;;
47337;SDS011;33069;51.970;5.892;2023-09-12T07:28:33;159.13;;;73.03;;
47337;SDS011;33069;51.970;5.892;2023-09-12T07:31:19;128.52;;;65.97;;
47337;SDS011;33069;51.970;5.892;2023-09-12T07:34:05;123.28;;;65.35;;
47337;SDS011;33069;51.970;5.892;2023-09-12T07:36:51;120.28;;;66.47;;
47337;SDS011;33069;51.970;5.892;2023-09-12T07:39:37;125.75;;;65.55;;
47337;SDS011;33069;51.970;5.892;2023-09-12T07:42:23;129.25;;;70.18;;
47337;SDS011;33069;51.970;5.892;2023-09-12T07:45:09;131.20;;;68.47;;
47337;SDS011;33069;51.970;5.892;2023-09-12T07:47:56;115.18;;;65.05;;
47337;SDS011;33069;51.970;5.892;2023-09-12T07:50:42;121.28;;;67.20;;
47337;SDS011;33069;51.970;5.892;2023-09-12T07:53:28;101.95;;;61.38;;
47337;SDS011;33069;51.970;5.892;2023-09-12T07:56:14;128.38;;;68.47;;
47337;SDS011;33069;51.970;5.892;2023-09-12T07:59:00;123.50;;;64.60;;
47337;SDS011;33069;51.970;5.892;2023-09-12T08:01:46;127.70;;;67.40;;
47337;SDS011;33069;51.970;5.892;2023-09-12T08:04:32;96.47;;;60.30;;
47337;SDS011;33069;51.970;5.892;2023-09-12T08:07:19;113.03;;;65.78;;
47337;SDS011;33069;51.970;5.892;2023-09-12T08:10:05;94.38;;;59.38;;
47337;SDS011;33069;51.970;5.892;2023-09-12T08:12:52;111.43;;;64.97;;
47337;SDS011;33069;51.970;5.892;2023-09-12T08:15:38;119.88;;;67.75;;
47337;SDS011;33069;51.970;5.892;2023-09-12T08:18:26;109.82;;;69.85;;
47337;SDS011;33069;51.970;5.892;2023-09-12T08:21:14;109.55;;;72.53;;
47337;SDS011;33069;51.970;5.892;2023-09-12T08:24:00;114.20;;;64.45;;
47337;SDS011;33069;51.970;5.892;2023-09-12T08:26:45;114.55;;;70.10;;
47337;SDS011;33069;51.970;5.892;2023-09-12T08:29:32;124.03;;;69.47;;
47337;SDS011;33069;51.970;5.892;2023-09-12T08:32:19;103.38;;;65.63;;
47337;SDS011;33069;51.970;5.892;2023-09-12T08:35:06;127.25;;;70.32;;
47337;SDS011;33069;51.970;5.892;2023-09-12T08:37:52;109.90;;;67.35;;
47337;SDS011;33069;51.970;5.892;2023-09-12T08:40:38;124.80;;;70.50;;
47337;SDS011;33069;51.970;5.892;2023-09-12T08:43:24;121.72;;;72.30;;
47337;SDS011;33069;51.970;5.892;2023-09-12T08:46:11;104.95;;;65.22;;
47337;SDS011;33069;51.970;5.892;2023-09-12T08:48:58;100.80;;;63.65;;
47337;SDS011;33069;51.970;5.892;2023-09-12T08:51:45;110.13;;;65.15;;
47337;SDS011;33069;51.970;5.892;2023-09-12T08:54:34;102.07;;;80.68;;
47337;SDS011;33069;51.970;5.892;2023-09-12T08:57:20;98.28;;;67.80;;
47337;SDS011;33069;51.970;5.892;2023-09-12T09:00:07;82.20;;;54.92;;
47337;SDS011;33069;51.970;5.892;2023-09-12T09:02:55;85.28;;;55.78;;
47337;SDS011;33069;51.970;5.892;2023-09-12T09:05:42;85.20;;;56.28;;
47337;SDS011;33069;51.970;5.892;2023-09-12T09:08:29;74.93;;;52.75;;
47337;SDS011;33069;51.970;5.892;2023-09-12T09:11:16;76.90;;;53.35;;
47337;SDS011;33069;51.970;5.892;2023-09-12T09:14:03;72.97;;;53.03;;
47337;SDS011;33069;51.970;5.892;2023-09-12T09:16:49;61.65;;;46.45;;
47337;SDS011;33069;51.970;5.892;2023-09-12T09:19:45;68.22;;;50.60;;
47337;SDS011;33069;51.970;5.892;2023-09-12T09:22:31;57.30;;;39.92;;
47337;SDS011;33069;51.970;5.892;2023-09-12T09:25:17;52.58;;;42.38;;
47337;SDS011;33069;51.970;5.892;2023-09-12T09:28:03;51.92;;;40.67;;
47337;SDS011;33069;51.970;5.892;2023-09-12T09:30:51;45.33;;;38.10;;
47337;SDS011;33069;51.970;5.892;2023-09-12T09:33:40;56.42;;;40.72;;
47337;SDS011;33069;51.970;5.892;2023-09-12T09:36:26;58.70;;;42.92;;
47337;SDS011;33069;51.970;5.892;2023-09-12T09:39:13;55.72;;;41.63;;
47337;SDS011;33069;51.970;5.892;2023-09-12T09:41:59;61.25;;;43.22;;
47337;SDS011;33069;51.970;5.892;2023-09-12T09:44:45;49.67;;;40.00;;
47337;SDS011;33069;51.970;5.892;2023-09-12T09:47:32;46.83;;;38.40;;
47337;SDS011;33069;51.970;5.892;2023-09-12T09:50:18;48.75;;;40.17;;
47337;SDS011;33069;51.970;5.892;2023-09-12T09:53:04;45.33;;;38.95;;
47337;SDS011;33069;51.970;5.892;2023-09-12T09:58:59;40.70;;;36.17;;
47337;SDS011;33069;51.970;5.892;2023-09-12T10:01:45;41.80;;;35.60;;
47337;SDS011;33069;51.970;5.892;2023-09-12T10:04:33;42.13;;;36.97;;
47337;SDS011;33069;51.970;5.892;2023-09-12T10:07:20;41.20;;;35.55;;
47337;SDS011;33069;51.970;5.892;2023-09-12T10:10:07;39.50;;;35.40;;
47337;SDS011;33069;51.970;5.892;2023-09-12T10:12:57;40.00;;;35.42;;
47337;SDS011;33069;51.970;5.892;2023-09-12T10:15:43;56.75;;;51.67;;
47337;SDS011;33069;51.970;5.892;2023-09-12T10:18:38;38.20;;;31.80;;
47337;SDS011;33069;51.970;5.892;2023-09-12T10:21:48;40.28;;;36.22;;
47337;SDS011;33069;51.970;5.892;2023-09-12T10:24:36;35.90;;;32.25;;
47337;SDS011;33069;51.970;5.892;2023-09-12T10:27:24;31.77;;;28.60;;
47337;SDS011;33069;51.970;5.892;2023-09-12T10:30:11;34.38;;;30.80;;
47337;SDS011;33069;51.970;5.892;2023-09-12T10:32:57;32.28;;;29.05;;
47337;SDS011;33069;51.970;5.892;2023-09-12T10:35:44;35.97;;;32.53;;
47337;SDS011;33069;51.970;5.892;2023-09-12T10:38:32;37.40;;;33.75;;
47337;SDS011;33069;51.970;5.892;2023-09-12T10:41:20;34.28;;;30.67;;
47337;SDS011;33069;51.970;5.892;2023-09-12T10:44:09;34.70;;;31.13;;
47337;SDS011;33069;51.970;5.892;2023-09-12T10:46:57;34.05;;;30.73;;
47337;SDS011;33069;51.970;5.892;2023-09-12T10:49:43;32.10;;;28.75;;
47337;SDS011;33069;51.970;5.892;2023-09-12T10:52:30;32.60;;;29.55;;
47337;SDS011;33069;51.970;5.892;2023-09-12T10:55:16;71.07;;;64.97;;
47337;SDS011;33069;51.970;5.892;2023-09-12T10:58:07;35.28;;;28.95;;
47337;SDS011;33069;51.970;5.892;2023-09-12T11:07:29;39.80;;;35.47;;
47337;SDS011;33069;51.970;5.892;2023-09-12T11:10:28;35.65;;;31.95;;
47337;SDS011;33069;51.970;5.892;2023-09-12T11:13:17;38.45;;;34.17;;
47337;SDS011;33069;51.970;5.892;2023-09-12T11:16:10;42.22;;;36.65;;
47337;SDS011;33069;51.970;5.892;2023-09-12T11:19:12;38.80;;;34.78;;
47337;SDS011;33069;51.970;5.892;2023-09-12T11:22:02;40.88;;;36.50;;
47337;SDS011;33069;51.970;5.892;2023-09-12T11:25:23;40.90;;;35.50;;
47337;SDS011;33069;51.970;5.892;2023-09-12T11:28:13;39.38;;;35.50;;
47337;SDS011;33069;51.970;5.892;2023-09-12T11:30:59;37.08;;;33.30;;
47337;SDS011;33069;51.970;5.892;2023-09-12T11:33:45;38.17;;;33.90;;
47337;SDS011;33069;51.970;5.892;2023-09-12T11:36:37;38.72;;;33.38;;
47337;SDS011;33069;51.970;5.892;2023-09-12T11:39:25;37.33;;;33.33;;
47337;SDS011;33069;51.970;5.892;2023-09-12T11:42:14;33.35;;;29.83;;
47337;SDS011;33069;51.970;5.892;2023-09-12T11:45:01;32.55;;;29.50;;
47337;SDS011;33069;51.970;5.892;2023-09-12T11:47:53;31.10;;;28.00;;
47337;SDS011;33069;51.970;5.892;2023-09-12T11:50:39;34.65;;;31.40;;
47337;SDS011;33069;51.970;5.892;2023-09-12T11:53:27;32.58;;;29.50;;
47337;SDS011;33069;51.970;5.892;2023-09-12T11:56:16;32.42;;;28.15;;
47337;SDS011;33069;51.970;5.892;2023-09-12T11:59:02;34.92;;;31.67;;
47337;SDS011;33069;51.970;5.892;2023-09-12T12:01:48;35.38;;;32.33;;
47337;SDS011;33069;51.970;5.892;2023-09-12T12:04:34;31.33;;;28.52;;
47337;SDS011;33069;51.970;5.892;2023-09-12T12:07:21;31.45;;;28.75;;
47337;SDS011;33069;51.970;5.892;2023-09-12T12:10:07;29.80;;;27.30;;
47337;SDS011;33069;51.970;5.892;2023-09-12T12:12:54;29.77;;;27.15;;
47337;SDS011;33069;51.970;5.892;2023-09-12T12:15:39;27.70;;;25.20;;
47337;SDS011;33069;51.970;5.892;2023-09-12T12:18:25;30.52;;;27.70;;
47337;SDS011;33069;51.970;5.892;2023-09-12T12:21:11;33.40;;;30.33;;
47337;SDS011;33069;51.970;5.892;2023-09-12T12:24:00;34.83;;;31.33;;
47337;SDS011;33069;51.970;5.892;2023-09-12T12:26:48;32.03;;;29.05;;
47337;SDS011;33069;51.970;5.892;2023-09-12T12:29:34;30.27;;;27.75;;
47337;SDS011;33069;51.970;5.892;2023-09-12T12:32:22;34.00;;;31.00;;
47337;SDS011;33069;51.970;5.892;2023-09-12T12:35:09;33.83;;;30.25;;
47337;SDS011;33069;51.970;5.892;2023-09-12T12:37:55;32.65;;;29.60;;
47337;SDS011;33069;51.970;5.892;2023-09-12T12:40:42;28.25;;;25.67;;
47337;SDS011;33069;51.970;5.892;2023-09-12T12:43:28;35.30;;;32.03;;
47337;SDS011;33069;51.970;5.892;2023-09-12T12:46:15;32.03;;;28.88;;
47337;SDS011;33069;51.970;5.892;2023-09-12T12:49:00;28.98;;;26.42;;
47337;SDS011;33069;51.970;5.892;2023-09-12T12:51:48;32.55;;;29.65;;
47337;SDS011;33069;51.970;5.892;2023-09-12T12:54:34;31.38;;;28.38;;
47337;SDS011;33069;51.970;5.892;2023-09-12T12:57:20;33.70;;;30.63;;
47337;SDS011;33069;51.970;5.892;2023-09-12T13:00:13;31.27;;;28.40;;
47337;SDS011;33069;51.970;5.892;2023-09-12T13:03:00;28.83;;;26.13;;
47337;SDS011;33069;51.970;5.892;2023-09-12T13:05:46;29.48;;;26.67;;
47337;SDS011;33069;51.970;5.892;2023-09-12T13:08:32;29.60;;;26.83;;
47337;SDS011;33069;51.970;5.892;2023-09-12T13:11:20;28.45;;;25.98;;
47337;SDS011;33069;51.970;5.892;2023-09-12T13:14:06;30.60;;;27.80;;
47337;SDS011;33069;51.970;5.892;2023-09-12T13:16:59;25.70;;;23.30;;
47337;SDS011;33069;51.970;5.892;2023-09-12T13:19:45;26.40;;;24.23;;
47337;SDS011;33069;51.970;5.892;2023-09-12T13:22:31;24.83;;;22.77;;
47337;SDS011;33069;51.970;5.892;2023-09-12T13:25:17;26.48;;;24.58;;
47337;SDS011;33069;51.970;5.892;2023-09-12T13:28:03;26.02;;;24.02;;
47337;SDS011;33069;51.970;5.892;2023-09-12T13:30:49;27.67;;;25.08;;
47337;SDS011;33069;51.970;5.892;2023-09-12T13:33:35;32.88;;;30.10;;
47337;SDS011;33069;51.970;5.892;2023-09-12T13:36:21;76.72;;;70.55;;
47337;SDS011;33069;51.970;5.892;2023-09-12T13:39:08;25.73;;;23.55;;
47337;SDS011;33069;51.970;5.892;2023-09-12T13:41:54;24.77;;;21.88;;
47337;SDS011;33069;51.970;5.892;2023-09-12T13:44:43;26.25;;;24.13;;
47337;SDS011;33069;51.970;5.892;2023-09-12T13:47:29;31.98;;;29.02;;
47337;SDS011;33069;51.970;5.892;2023-09-12T13:50:15;25.92;;;23.35;;
47337;SDS011;33069;51.970;5.892;2023-09-12T13:53:02;23.33;;;21.58;;
47337;SDS011;33069;51.970;5.892;2023-09-12T13:55:52;28.40;;;25.92;;
47337;SDS011;33069;51.970;5.892;2023-09-12T13:58:38;27.35;;;24.50;;
47337;SDS011;33069;51.970;5.892;2023-09-12T14:01:23;24.10;;;22.20;;
47337;SDS011;33069;51.970;5.892;2023-09-12T14:04:09;26.42;;;24.42;;
47337;SDS011;33069;51.970;5.892;2023-09-12T14:06:55;30.08;;;27.98;;
47337;SDS011;33069;51.970;5.892;2023-09-12T14:09:41;28.95;;;26.73;;
47337;SDS011;33069;51.970;5.892;2023-09-12T14:12:27;28.50;;;25.80;;
47337;SDS011;33069;51.970;5.892;2023-09-12T14:15:14;28.75;;;26.20;;
47337;SDS011;33069;51.970;5.892;2023-09-12T14:18:00;27.63;;;24.92;;
47337;SDS011;33069;51.970;5.892;2023-09-12T14:20:46;35.35;;;32.65;;
47337;SDS011;33069;51.970;5.892;2023-09-12T14:23:32;25.77;;;23.58;;
47337;SDS011;33069;51.970;5.892;2023-09-12T14:26:18;25.95;;;23.95;;
47337;SDS011;33069;51.970;5.892;2023-09-12T14:29:04;27.23;;;25.10;;
47337;SDS011;33069;51.970;5.892;2023-09-12T14:31:50;27.33;;;24.77;;
47337;SDS011;33069;51.970;5.892;2023-09-12T14:34:38;26.77;;;24.70;;
47337;SDS011;33069;51.970;5.892;2023-09-12T14:37:24;27.42;;;25.00;;
47337;SDS011;33069;51.970;5.892;2023-09-12T14:40:12;29.25;;;26.80;;
47337;SDS011;33069;51.970;5.892;2023-09-12T14:43:02;30.00;;;27.38;;
47337;SDS011;33069;51.970;5.892;2023-09-12T14:45:48;25.67;;;23.13;;
47337;SDS011;33069;51.970;5.892;2023-09-12T14:48:34;26.35;;;24.05;;
47337;SDS011;33069;51.970;5.892;2023-09-12T14:51:21;27.15;;;24.95;;
47337;SDS011;33069;51.970;5.892;2023-09-12T14:54:07;28.38;;;25.95;;
47337;SDS011;33069;51.970;5.892;2023-09-12T14:56:54;28.27;;;25.85;;
47337;SDS011;33069;51.970;5.892;2023-09-12T14:59:40;26.73;;;24.25;;
47337;SDS011;33069;51.970;5.892;2023-09-12T15:02:26;29.30;;;26.55;;
47337;SDS011;33069;51.970;5.892;2023-09-12T15:05:16;27.55;;;25.35;;
47337;SDS011;33069;51.970;5.892;2023-09-12T15:08:02;30.10;;;27.40;;
47337;SDS011;33069;51.970;5.892;2023-09-12T15:10:49;27.38;;;24.80;;
47337;SDS011;33069;51.970;5.892;2023-09-12T15:13:35;26.20;;;24.02;;
47337;SDS011;33069;51.970;5.892;2023-09-12T15:16:21;26.15;;;23.95;;
47337;SDS011;33069;51.970;5.892;2023-09-12T15:19:07;26.38;;;24.30;;
47337;SDS011;33069;51.970;5.892;2023-09-12T15:21:52;24.95;;;23.05;;
47337;SDS011;33069;51.970;5.892;2023-09-12T15:24:41;31.77;;;29.13;;
47337;SDS011;33069;51.970;5.892;2023-09-12T15:27:27;32.92;;;30.25;;
47337;SDS011;33069;51.970;5.892;2023-09-12T15:30:14;27.88;;;25.25;;
47337;SDS011;33069;51.970;5.892;2023-09-12T15:33:00;27.65;;;25.15;;
47337;SDS011;33069;51.970;5.892;2023-09-12T15:35:46;27.55;;;25.25;;
47337;SDS011;33069;51.970;5.892;2023-09-12T15:38:32;26.85;;;24.65;;
47337;SDS011;33069;51.970;5.892;2023-09-12T15:41:18;26.25;;;23.85;;
47337;SDS011;33069;51.970;5.892;2023-09-12T15:44:04;30.25;;;27.83;;
47337;SDS011;33069;51.970;5.892;2023-09-12T15:46:51;26.73;;;24.38;;
47337;SDS011;33069;51.970;5.892;2023-09-12T15:49:38;26.95;;;24.58;;
47337;SDS011;33069;51.970;5.892;2023-09-12T15:52:24;26.77;;;24.60;;
47337;SDS011;33069;51.970;5.892;2023-09-12T15:55:11;26.58;;;24.15;;
47337;SDS011;33069;51.970;5.892;2023-09-12T15:57:57;25.38;;;23.38;;
47337;SDS011;33069;51.970;5.892;2023-09-12T16:00:43;27.55;;;25.35;;
47337;SDS011;33069;51.970;5.892;2023-09-12T16:03:29;27.67;;;24.48;;
47337;SDS011;33069;51.970;5.892;2023-09-12T16:06:16;25.33;;;23.23;;
47337;SDS011;33069;51.970;5.892;2023-09-12T16:09:02;24.65;;;22.70;;
47337;SDS011;33069;51.970;5.892;2023-09-12T16:11:50;24.85;;;22.98;;
47337;SDS011;33069;51.970;5.892;2023-09-12T16:14:36;25.52;;;22.88;;
47337;SDS011;33069;51.970;5.892;2023-09-12T16:17:22;25.08;;;23.08;;
47337;SDS011;33069;51.970;5.892;2023-09-12T16:20:09;24.50;;;22.35;;